Van Nuys, CA (91411)

6:22 PM PDT on April 27, 2015 (GMT -0700)
Valley College Weather Station | | Change Station
CLOSE
Current Station
Personal Weather Station
Location: Valley Glen, CA
Elevation: 699 ft
Nearby Weather Stations

Elev 699 ft 34.18 °N, 118.42 °W | Updated 0 second ago

Clear
Clear
79.4 °F
Feels Like 78 °F
N
1.9
Wind Variable Wind from SE
Gusts 2.0 mph

Today
High -- | Low -- °F
--% Chance of Precip.
Yesterday
High -- | Low -- °F
Precip. -- in
6:08 AM 7:34 PM
Waxing Gibbous, 69% visible
Pressure 29.85 in
Visibility 10.0 miles
Clouds Clear
Heat Index 78 °F
Dew Point 39 °F
Humidity 24%
Rainfall 0.00 in
Snow Depth Not available.
UV 2 out of 12
Pollen 6.70 out of 12
Air Quality Not available.
Flu Activity Sporadic
METAR KVNY 280051Z 10007KT 10SM CLR 28/01 A2988 RMK AO2 SLP108 T02830006 $

More Conditions Fewer Conditions

Pressure 29.85 in
Visibility 10.0 miles
Clouds Clear
Heat Index 78 °F
Dew Point 39 °F
Humidity 24%
Rainfall 0.00 in
Snow Depth Not available.
UV 2 out of 12
Pollen 6.70 out of 12
Air Quality Not available.
Flu Activity Sporadic
METAR KVNY 280051Z 10007KT 10SM CLR 28/01 A2988 RMK AO2 SLP108 T02830006 $

More Conditions Fewer Conditions

10-Day Weather Forecast

Almanac

Astronomy

Apr. 27, 2015 Rise Set
Actual Time
Civil Twilight
Nautical Twilight
Astronomical Twilight
Moon
Length of Visible Light
Length of Day
Tomorrow will be .
, % of the Moon is Illuminated

Today's Extremes

State Highs State Lows

Community

WunderPhotos

Upload Photos

1,817,508 photos uploaded!

WunderBlogs® & News

Nearby

Air Quality

  Air Quality AQ Index Pollutant
Not available.

Snow Depth

Station Depth Elevation

Earthquake Activity

City Distance Mag. Time & Date
Minimum magnitude displayed is 2.5.

Coastal Water Temperatures

Place Temperature

Stations

Nearby Weather Stations

Station Location Temp. Windchill Dew Point Humidity Wind Precip. Elev Updated Type